sensor_id;sensor_type;location;lat;lon;timestamp;P1;durP1;ratioP1;P2;durP2;ratioP2
50683;SDS011;36654;45.042;38.994;2023-02-04T00:00:21;11.35;;;7.95;;
50683;SDS011;36654;45.042;38.994;2023-02-04T00:02:47;13.38;;;8.30;;
50683;SDS011;36654;45.042;38.994;2023-02-04T00:05:15;12.35;;;7.63;;
50683;SDS011;36654;45.042;38.994;2023-02-04T00:07:41;12.35;;;7.78;;
50683;SDS011;36654;45.042;38.994;2023-02-04T00:10:07;12.35;;;8.70;;
50683;SDS011;36654;45.042;38.994;2023-02-04T00:12:34;11.85;;;7.70;;
50683;SDS011;36654;45.042;38.994;2023-02-04T00:15:00;14.48;;;9.35;;
50683;SDS011;36654;45.042;38.994;2023-02-04T00:17:26;14.73;;;9.30;;
50683;SDS011;36654;45.042;38.994;2023-02-04T00:19:53;13.52;;;7.70;;
50683;SDS011;36654;45.042;38.994;2023-02-04T00:22:18;14.65;;;9.13;;
50683;SDS011;36654;45.042;38.994;2023-02-04T00:24:45;16.90;;;8.68;;
50683;SDS011;36654;45.042;38.994;2023-02-04T00:27:14;13.75;;;8.68;;
50683;SDS011;36654;45.042;38.994;2023-02-04T00:29:40;20.90;;;9.90;;
50683;SDS011;36654;45.042;38.994;2023-02-04T00:32:07;14.90;;;8.75;;
50683;SDS011;36654;45.042;38.994;2023-02-04T00:34:32;17.50;;;9.63;;
50683;SDS011;36654;45.042;38.994;2023-02-04T00:36:58;16.23;;;9.82;;
50683;SDS011;36654;45.042;38.994;2023-02-04T00:39:25;15.93;;;8.82;;
50683;SDS011;36654;45.042;38.994;2023-02-04T00:41:50;16.13;;;8.52;;
50683;SDS011;36654;45.042;38.994;2023-02-04T00:44:16;12.65;;;7.75;;
50683;SDS011;36654;45.042;38.994;2023-02-04T00:46:42;16.05;;;9.20;;
50683;SDS011;36654;45.042;38.994;2023-02-04T00:49:08;15.90;;;8.40;;
50683;SDS011;36654;45.042;38.994;2023-02-04T00:51:38;13.48;;;8.48;;
50683;SDS011;36654;45.042;38.994;2023-02-04T00:54:05;16.08;;;9.13;;
50683;SDS011;36654;45.042;38.994;2023-02-04T00:56:31;15.88;;;9.40;;
50683;SDS011;36654;45.042;38.994;2023-02-04T00:58:58;16.40;;;8.43;;
50683;SDS011;36654;45.042;38.994;2023-02-04T01:01:24;14.70;;;7.80;;
50683;SDS011;36654;45.042;38.994;2023-02-04T01:03:49;15.82;;;7.88;;
50683;SDS011;36654;45.042;38.994;2023-02-04T01:06:15;14.30;;;7.65;;
50683;SDS011;36654;45.042;38.994;2023-02-04T01:08:40;13.15;;;8.45;;
50683;SDS011;36654;45.042;38.994;2023-02-04T01:11:06;14.50;;;8.80;;
50683;SDS011;36654;45.042;38.994;2023-02-04T01:13:32;14.65;;;8.55;;
50683;SDS011;36654;45.042;38.994;2023-02-04T01:15:57;12.30;;;7.40;;
50683;SDS011;36654;45.042;38.994;2023-02-04T01:18:23;15.75;;;8.38;;
50683;SDS011;36654;45.042;38.994;2023-02-04T01:20:48;13.90;;;7.75;;
50683;SDS011;36654;45.042;38.994;2023-02-04T01:23:14;11.07;;;7.15;;
50683;SDS011;36654;45.042;38.994;2023-02-04T01:25:40;12.85;;;8.35;;
50683;SDS011;36654;45.042;38.994;2023-02-04T01:28:05;14.18;;;7.72;;
50683;SDS011;36654;45.042;38.994;2023-02-04T01:30:31;12.93;;;7.45;;
50683;SDS011;36654;45.042;38.994;2023-02-04T01:32:56;11.40;;;6.75;;
50683;SDS011;36654;45.042;38.994;2023-02-04T01:35:22;15.95;;;8.20;;
50683;SDS011;36654;45.042;38.994;2023-02-04T01:37:48;11.95;;;7.07;;
50683;SDS011;36654;45.042;38.994;2023-02-04T01:40:13;11.38;;;6.80;;
50683;SDS011;36654;45.042;38.994;2023-02-04T01:42:39;15.52;;;8.20;;
50683;SDS011;36654;45.042;38.994;2023-02-04T01:45:05;11.82;;;6.95;;
50683;SDS011;36654;45.042;38.994;2023-02-04T01:47:32;13.43;;;7.57;;
50683;SDS011;36654;45.042;38.994;2023-02-04T01:49:58;13.90;;;7.25;;
50683;SDS011;36654;45.042;38.994;2023-02-04T01:52:24;14.80;;;8.07;;
50683;SDS011;36654;45.042;38.994;2023-02-04T01:54:59;13.73;;;7.75;;
50683;SDS011;36654;45.042;38.994;2023-02-04T01:57:25;13.13;;;7.97;;
50683;SDS011;36654;45.042;38.994;2023-02-04T01:59:51;15.77;;;7.80;;
50683;SDS011;36654;45.042;38.994;2023-02-04T02:05:16;12.43;;;7.70;;
50683;SDS011;36654;45.042;38.994;2023-02-04T02:07:45;11.77;;;7.15;;
50683;SDS011;36654;45.042;38.994;2023-02-04T02:10:13;13.75;;;7.40;;
50683;SDS011;36654;45.042;38.994;2023-02-04T02:12:40;11.95;;;7.65;;
50683;SDS011;36654;45.042;38.994;2023-02-04T02:15:07;12.10;;;7.68;;
50683;SDS011;36654;45.042;38.994;2023-02-04T02:17:34;13.05;;;6.65;;
50683;SDS011;36654;45.042;38.994;2023-02-04T02:20:00;12.63;;;6.93;;
50683;SDS011;36654;45.042;38.994;2023-02-04T02:22:31;12.30;;;7.65;;
50683;SDS011;36654;45.042;38.994;2023-02-04T02:27:32;13.05;;;7.28;;
50683;SDS011;36654;45.042;38.994;2023-02-04T02:29:57;13.18;;;6.93;;
50683;SDS011;36654;45.042;38.994;2023-02-04T02:32:23;13.57;;;8.15;;
50683;SDS011;36654;45.042;38.994;2023-02-04T02:34:48;15.30;;;8.25;;
50683;SDS011;36654;45.042;38.994;2023-02-04T02:37:14;13.75;;;7.32;;
50683;SDS011;36654;45.042;38.994;2023-02-04T02:39:40;13.73;;;7.63;;
50683;SDS011;36654;45.042;38.994;2023-02-04T02:44:37;14.77;;;7.70;;
50683;SDS011;36654;45.042;38.994;2023-02-04T02:47:03;13.82;;;7.82;;
50683;SDS011;36654;45.042;38.994;2023-02-04T02:49:29;13.68;;;7.10;;
50683;SDS011;36654;45.042;38.994;2023-02-04T02:51:56;14.25;;;7.72;;
50683;SDS011;36654;45.042;38.994;2023-02-04T02:54:26;14.38;;;7.32;;
50683;SDS011;36654;45.042;38.994;2023-02-04T02:56:53;15.63;;;8.20;;
50683;SDS011;36654;45.042;38.994;2023-02-04T02:59:20;15.57;;;8.00;;
50683;SDS011;36654;45.042;38.994;2023-02-04T03:01:47;14.43;;;8.27;;
50683;SDS011;36654;45.042;38.994;2023-02-04T03:04:17;16.85;;;8.85;;
50683;SDS011;36654;45.042;38.994;2023-02-04T03:06:46;14.75;;;8.75;;
50683;SDS011;36654;45.042;38.994;2023-02-04T03:09:12;16.98;;;9.10;;
50683;SDS011;36654;45.042;38.994;2023-02-04T03:11:38;17.40;;;10.10;;
50683;SDS011;36654;45.042;38.994;2023-02-04T03:14:04;19.13;;;10.77;;
50683;SDS011;36654;45.042;38.994;2023-02-04T03:16:30;16.50;;;9.43;;
50683;SDS011;36654;45.042;38.994;2023-02-04T03:18:58;18.17;;;9.25;;
50683;SDS011;36654;45.042;38.994;2023-02-04T03:21:24;16.67;;;9.43;;
50683;SDS011;36654;45.042;38.994;2023-02-04T03:23:51;17.15;;;10.02;;
50683;SDS011;36654;45.042;38.994;2023-02-04T03:26:20;17.42;;;9.43;;
50683;SDS011;36654;45.042;38.994;2023-02-04T03:28:52;16.48;;;8.98;;
50683;SDS011;36654;45.042;38.994;2023-02-04T03:31:20;19.75;;;9.65;;
50683;SDS011;36654;45.042;38.994;2023-02-04T03:33:45;15.88;;;9.95;;
50683;SDS011;36654;45.042;38.994;2023-02-04T03:36:11;19.88;;;10.18;;
50683;SDS011;36654;45.042;38.994;2023-02-04T03:38:37;19.02;;;9.63;;
50683;SDS011;36654;45.042;38.994;2023-02-04T03:41:03;21.13;;;11.38;;
50683;SDS011;36654;45.042;38.994;2023-02-04T03:43:28;19.52;;;10.15;;
50683;SDS011;36654;45.042;38.994;2023-02-04T03:45:54;19.17;;;10.77;;
50683;SDS011;36654;45.042;38.994;2023-02-04T03:48:20;19.58;;;10.13;;
50683;SDS011;36654;45.042;38.994;2023-02-04T03:50:45;18.98;;;9.73;;
50683;SDS011;36654;45.042;38.994;2023-02-04T03:53:11;19.83;;;9.95;;
50683;SDS011;36654;45.042;38.994;2023-02-04T03:55:36;19.27;;;10.77;;
50683;SDS011;36654;45.042;38.994;2023-02-04T03:58:02;19.52;;;10.40;;
50683;SDS011;36654;45.042;38.994;2023-02-04T04:00:29;20.00;;;9.90;;
50683;SDS011;36654;45.042;38.994;2023-02-04T04:02:56;19.58;;;11.07;;
50683;SDS011;36654;45.042;38.994;2023-02-04T04:05:22;17.98;;;9.88;;
50683;SDS011;36654;45.042;38.994;2023-02-04T04:07:49;21.13;;;10.73;;
50683;SDS011;36654;45.042;38.994;2023-02-04T04:10:15;19.25;;;9.20;;
50683;SDS011;36654;45.042;38.994;2023-02-04T04:12:41;19.42;;;9.50;;
50683;SDS011;36654;45.042;38.994;2023-02-04T04:15:06;18.77;;;10.15;;
50683;SDS011;36654;45.042;38.994;2023-02-04T04:17:32;17.27;;;9.73;;
50683;SDS011;36654;45.042;38.994;2023-02-04T04:19:58;18.00;;;10.20;;
50683;SDS011;36654;45.042;38.994;2023-02-04T04:22:24;19.65;;;11.68;;
50683;SDS011;36654;45.042;38.994;2023-02-04T04:24:50;19.23;;;10.63;;
50683;SDS011;36654;45.042;38.994;2023-02-04T04:27:15;19.25;;;10.30;;
50683;SDS011;36654;45.042;38.994;2023-02-04T04:29:41;18.63;;;10.93;;
50683;SDS011;36654;45.042;38.994;2023-02-04T04:32:06;19.50;;;10.30;;
50683;SDS011;36654;45.042;38.994;2023-02-04T04:34:33;21.75;;;11.45;;
50683;SDS011;36654;45.042;38.994;2023-02-04T04:36:59;24.52;;;12.13;;
50683;SDS011;36654;45.042;38.994;2023-02-04T04:39:25;18.55;;;10.40;;
50683;SDS011;36654;45.042;38.994;2023-02-04T04:41:50;24.05;;;12.20;;
50683;SDS011;36654;45.042;38.994;2023-02-04T04:44:16;23.42;;;11.52;;
50683;SDS011;36654;45.042;38.994;2023-02-04T04:46:42;20.58;;;12.40;;
50683;SDS011;36654;45.042;38.994;2023-02-04T04:49:07;21.88;;;11.55;;
50683;SDS011;36654;45.042;38.994;2023-02-04T04:51:33;23.52;;;13.10;;
50683;SDS011;36654;45.042;38.994;2023-02-04T04:53:58;24.85;;;12.48;;
50683;SDS011;36654;45.042;38.994;2023-02-04T04:56:24;20.98;;;11.93;;
50683;SDS011;36654;45.042;38.994;2023-02-04T04:58:50;22.95;;;12.85;;
50683;SDS011;36654;45.042;38.994;2023-02-04T05:01:15;22.05;;;11.70;;
50683;SDS011;36654;45.042;38.994;2023-02-04T05:03:41;25.70;;;12.25;;
50683;SDS011;36654;45.042;38.994;2023-02-04T05:06:06;27.13;;;15.40;;
50683;SDS011;36654;45.042;38.994;2023-02-04T05:08:33;24.05;;;13.63;;
50683;SDS011;36654;45.042;38.994;2023-02-04T05:11:00;24.70;;;12.50;;
50683;SDS011;36654;45.042;38.994;2023-02-04T05:13:26;22.90;;;12.40;;
50683;SDS011;36654;45.042;38.994;2023-02-04T05:15:55;22.80;;;12.50;;
50683;SDS011;36654;45.042;38.994;2023-02-04T05:18:21;25.30;;;14.20;;
50683;SDS011;36654;45.042;38.994;2023-02-04T05:20:46;22.38;;;12.20;;
50683;SDS011;36654;45.042;38.994;2023-02-04T05:23:12;24.80;;;13.45;;
50683;SDS011;36654;45.042;38.994;2023-02-04T05:25:38;25.85;;;15.55;;
50683;SDS011;36654;45.042;38.994;2023-02-04T05:28:03;23.05;;;12.15;;
50683;SDS011;36654;45.042;38.994;2023-02-04T05:30:30;29.30;;;13.35;;
50683;SDS011;36654;45.042;38.994;2023-02-04T05:32:55;27.00;;;12.70;;
50683;SDS011;36654;45.042;38.994;2023-02-04T05:35:21;19.10;;;10.93;;
50683;SDS011;36654;45.042;38.994;2023-02-04T05:37:46;22.20;;;10.50;;
50683;SDS011;36654;45.042;38.994;2023-02-04T05:40:12;20.27;;;10.20;;
50683;SDS011;36654;45.042;38.994;2023-02-04T05:42:38;23.85;;;11.13;;
50683;SDS011;36654;45.042;38.994;2023-02-04T05:45:05;25.60;;;12.93;;
50683;SDS011;36654;45.042;38.994;2023-02-04T05:47:32;26.00;;;14.60;;
50683;SDS011;36654;45.042;38.994;2023-02-04T05:49:57;28.73;;;17.05;;
50683;SDS011;36654;45.042;38.994;2023-02-04T05:52:23;33.15;;;17.33;;
50683;SDS011;36654;45.042;38.994;2023-02-04T05:54:49;27.73;;;16.27;;
50683;SDS011;36654;45.042;38.994;2023-02-04T05:57:14;26.90;;;15.32;;
50683;SDS011;36654;45.042;38.994;2023-02-04T05:59:40;22.00;;;13.98;;
50683;SDS011;36654;45.042;38.994;2023-02-04T06:02:05;26.98;;;14.93;;
50683;SDS011;36654;45.042;38.994;2023-02-04T06:04:31;25.83;;;14.48;;
50683;SDS011;36654;45.042;38.994;2023-02-04T06:06:56;31.77;;;18.60;;
50683;SDS011;36654;45.042;38.994;2023-02-04T06:09:22;29.55;;;16.70;;
50683;SDS011;36654;45.042;38.994;2023-02-04T06:11:48;28.33;;;16.13;;
50683;SDS011;36654;45.042;38.994;2023-02-04T06:14:13;30.08;;;16.90;;
50683;SDS011;36654;45.042;38.994;2023-02-04T06:16:39;29.02;;;15.63;;
50683;SDS011;36654;45.042;38.994;2023-02-04T06:19:05;32.22;;;16.27;;
50683;SDS011;36654;45.042;38.994;2023-02-04T06:21:30;25.35;;;14.13;;
50683;SDS011;36654;45.042;38.994;2023-02-04T06:23:56;26.92;;;14.60;;
50683;SDS011;36654;45.042;38.994;2023-02-04T06:26:21;25.25;;;14.23;;
50683;SDS011;36654;45.042;38.994;2023-02-04T06:28:47;23.13;;;14.48;;
50683;SDS011;36654;45.042;38.994;2023-02-04T06:31:12;24.88;;;14.02;;
50683;SDS011;36654;45.042;38.994;2023-02-04T06:33:38;30.58;;;16.95;;
50683;SDS011;36654;45.042;38.994;2023-02-04T06:36:04;29.92;;;15.60;;
50683;SDS011;36654;45.042;38.994;2023-02-04T06:38:29;32.47;;;17.20;;
50683;SDS011;36654;45.042;38.994;2023-02-04T06:40:55;33.20;;;18.58;;
50683;SDS011;36654;45.042;38.994;2023-02-04T06:43:21;32.58;;;17.55;;
50683;SDS011;36654;45.042;38.994;2023-02-04T06:45:49;29.70;;;16.25;;
50683;SDS011;36654;45.042;38.994;2023-02-04T06:48:16;36.92;;;19.60;;
50683;SDS011;36654;45.042;38.994;2023-02-04T06:50:41;32.03;;;17.30;;
50683;SDS011;36654;45.042;38.994;2023-02-04T06:53:07;33.50;;;18.27;;
50683;SDS011;36654;45.042;38.994;2023-02-04T06:55:33;30.25;;;16.92;;
50683;SDS011;36654;45.042;38.994;2023-02-04T06:57:58;32.10;;;17.13;;
50683;SDS011;36654;45.042;38.994;2023-02-04T07:00:24;29.52;;;16.10;;
50683;SDS011;36654;45.042;38.994;2023-02-04T07:02:50;21.30;;;11.23;;
50683;SDS011;36654;45.042;38.994;2023-02-04T07:05:15;16.95;;;8.35;;
50683;SDS011;36654;45.042;38.994;2023-02-04T07:07:41;13.98;;;7.53;;
50683;SDS011;36654;45.042;38.994;2023-02-04T07:10:06;16.17;;;8.80;;
50683;SDS011;36654;45.042;38.994;2023-02-04T07:12:32;15.77;;;8.80;;
50683;SDS011;36654;45.042;38.994;2023-02-04T07:14:58;18.80;;;9.77;;
50683;SDS011;36654;45.042;38.994;2023-02-04T07:17:24;17.25;;;9.27;;
50683;SDS011;36654;45.042;38.994;2023-02-04T07:19:49;14.52;;;7.78;;
50683;SDS011;36654;45.042;38.994;2023-02-04T07:22:15;14.23;;;8.10;;
50683;SDS011;36654;45.042;38.994;2023-02-04T07:24:40;15.65;;;8.32;;
50683;SDS011;36654;45.042;38.994;2023-02-04T07:27:06;13.70;;;8.23;;
50683;SDS011;36654;45.042;38.994;2023-02-04T07:29:32;14.20;;;8.02;;
50683;SDS011;36654;45.042;38.994;2023-02-04T07:31:57;15.68;;;8.38;;
50683;SDS011;36654;45.042;38.994;2023-02-04T07:34:23;14.20;;;7.28;;
50683;SDS011;36654;45.042;38.994;2023-02-04T07:36:48;16.08;;;7.53;;
50683;SDS011;36654;45.042;38.994;2023-02-04T07:39:14;15.60;;;7.75;;
50683;SDS011;36654;45.042;38.994;2023-02-04T07:41:40;15.07;;;7.07;;
50683;SDS011;36654;45.042;38.994;2023-02-04T07:44:06;12.27;;;6.97;;
50683;SDS011;36654;45.042;38.994;2023-02-04T07:46:31;11.63;;;6.90;;
50683;SDS011;36654;45.042;38.994;2023-02-04T07:48:57;11.88;;;6.60;;
50683;SDS011;36654;45.042;38.994;2023-02-04T07:51:23;11.68;;;6.63;;
50683;SDS011;36654;45.042;38.994;2023-02-04T07:53:48;13.82;;;6.50;;
50683;SDS011;36654;45.042;38.994;2023-02-04T07:56:14;11.80;;;6.80;;
50683;SDS011;36654;45.042;38.994;2023-02-04T07:58:40;11.80;;;6.80;;
50683;SDS011;36654;45.042;38.994;2023-02-04T08:01:05;10.57;;;6.00;;
50683;SDS011;36654;45.042;38.994;2023-02-04T08:03:31;11.02;;;6.45;;
50683;SDS011;36654;45.042;38.994;2023-02-04T08:05:56;12.38;;;6.53;;
50683;SDS011;36654;45.042;38.994;2023-02-04T08:08:22;10.23;;;6.13;;
50683;SDS011;36654;45.042;38.994;2023-02-04T08:10:48;10.57;;;6.28;;
50683;SDS011;36654;45.042;38.994;2023-02-04T08:13:14;10.65;;;5.72;;
50683;SDS011;36654;45.042;38.994;2023-02-04T08:15:40;10.18;;;6.18;;
50683;SDS011;36654;45.042;38.994;2023-02-04T08:18:05;11.65;;;6.75;;
50683;SDS011;36654;45.042;38.994;2023-02-04T08:20:31;10.35;;;5.95;;
50683;SDS011;36654;45.042;38.994;2023-02-04T08:22:57;13.27;;;6.05;;
50683;SDS011;36654;45.042;38.994;2023-02-04T08:25:23;10.95;;;6.93;;
50683;SDS011;36654;45.042;38.994;2023-02-04T08:27:48;16.88;;;8.75;;
50683;SDS011;36654;45.042;38.994;2023-02-04T08:30:14;14.48;;;7.03;;
50683;SDS011;36654;45.042;38.994;2023-02-04T08:32:40;11.30;;;6.43;;
50683;SDS011;36654;45.042;38.994;2023-02-04T08:35:06;8.95;;;5.60;;
50683;SDS011;36654;45.042;38.994;2023-02-04T08:37:32;10.55;;;5.47;;
50683;SDS011;36654;45.042;38.994;2023-02-04T08:39:58;9.43;;;5.60;;
50683;SDS011;36654;45.042;38.994;2023-02-04T08:42:24;10.38;;;6.15;;
50683;SDS011;36654;45.042;38.994;2023-02-04T08:44:49;8.65;;;5.05;;
50683;SDS011;36654;45.042;38.994;2023-02-04T08:47:15;9.35;;;5.75;;
50683;SDS011;36654;45.042;38.994;2023-02-04T08:49:41;7.88;;;4.85;;
50683;SDS011;36654;45.042;38.994;2023-02-04T08:52:06;8.52;;;5.00;;
50683;SDS011;36654;45.042;38.994;2023-02-04T08:54:32;8.45;;;5.65;;
50683;SDS011;36654;45.042;38.994;2023-02-04T08:56:58;5.82;;;4.20;;
50683;SDS011;36654;45.042;38.994;2023-02-04T08:59:24;10.23;;;5.05;;
50683;SDS011;36654;45.042;38.994;2023-02-04T09:01:51;7.32;;;4.78;;
50683;SDS011;36654;45.042;38.994;2023-02-04T09:04:17;7.13;;;4.60;;
50683;SDS011;36654;45.042;38.994;2023-02-04T09:06:43;8.50;;;4.85;;
50683;SDS011;36654;45.042;38.994;2023-02-04T09:09:09;8.25;;;5.25;;
50683;SDS011;36654;45.042;38.994;2023-02-04T09:11:35;7.32;;;4.68;;
50683;SDS011;36654;45.042;38.994;2023-02-04T09:14:01;8.88;;;4.88;;
50683;SDS011;36654;45.042;38.994;2023-02-04T09:16:27;8.25;;;4.88;;
50683;SDS011;36654;45.042;38.994;2023-02-04T09:18:52;11.35;;;5.90;;
50683;SDS011;36654;45.042;38.994;2023-02-04T09:21:18;10.95;;;6.55;;
50683;SDS011;36654;45.042;38.994;2023-02-04T09:23:44;14.20;;;8.05;;
50683;SDS011;36654;45.042;38.994;2023-02-04T09:26:11;10.60;;;6.38;;
50683;SDS011;36654;45.042;38.994;2023-02-04T09:28:37;8.43;;;5.38;;
50683;SDS011;36654;45.042;38.994;2023-02-04T09:31:03;10.93;;;6.13;;
50683;SDS011;36654;45.042;38.994;2023-02-04T09:33:30;7.97;;;5.45;;
50683;SDS011;36654;45.042;38.994;2023-02-04T09:35:57;7.63;;;5.25;;
50683;SDS011;36654;45.042;38.994;2023-02-04T09:38:22;7.03;;;4.75;;
50683;SDS011;36654;45.042;38.994;2023-02-04T09:40:50;7.03;;;4.95;;
50683;SDS011;36654;45.042;38.994;2023-02-04T09:43:21;8.07;;;4.95;;
50683;SDS011;36654;45.042;38.994;2023-02-04T09:45:51;7.93;;;5.07;;
50683;SDS011;36654;45.042;38.994;2023-02-04T09:48:18;7.85;;;5.05;;
50683;SDS011;36654;45.042;38.994;2023-02-04T09:50:46;9.00;;;5.32;;
50683;SDS011;36654;45.042;38.994;2023-02-04T09:53:19;11.30;;;5.93;;
50683;SDS011;36654;45.042;38.994;2023-02-04T09:55:48;11.60;;;5.43;;
50683;SDS011;36654;45.042;38.994;2023-02-04T09:58:16;8.57;;;5.93;;
50683;SDS011;36654;45.042;38.994;2023-02-04T10:00:44;10.68;;;5.78;;
50683;SDS011;36654;45.042;38.994;2023-02-04T10:03:15;12.30;;;6.38;;
50683;SDS011;36654;45.042;38.994;2023-02-04T10:05:44;9.80;;;6.22;;
50683;SDS011;36654;45.042;38.994;2023-02-04T10:08:21;12.50;;;6.85;;
50683;SDS011;36654;45.042;38.994;2023-02-04T10:10:53;10.35;;;6.55;;
50683;SDS011;36654;45.042;38.994;2023-02-04T10:13:19;9.95;;;5.97;;
50683;SDS011;36654;45.042;38.994;2023-02-04T10:15:48;10.13;;;6.10;;
50683;SDS011;36654;45.042;38.994;2023-02-04T10:18:17;11.30;;;6.57;;
50683;SDS011;36654;45.042;38.994;2023-02-04T10:20:48;12.93;;;7.43;;
50683;SDS011;36654;45.042;38.994;2023-02-04T10:23:13;11.80;;;7.85;;
50683;SDS011;36654;45.042;38.994;2023-02-04T10:25:39;8.55;;;5.82;;
50683;SDS011;36654;45.042;38.994;2023-02-04T10:28:05;10.48;;;6.47;;
50683;SDS011;36654;45.042;38.994;2023-02-04T10:30:31;10.20;;;6.43;;
50683;SDS011;36654;45.042;38.994;2023-02-04T10:33:13;10.40;;;6.22;;
50683;SDS011;36654;45.042;38.994;2023-02-04T10:35:50;8.63;;;5.60;;
50683;SDS011;36654;45.042;38.994;2023-02-04T10:38:17;9.52;;;6.28;;
50683;SDS011;36654;45.042;38.994;2023-02-04T10:40:43;9.93;;;6.20;;
50683;SDS011;36654;45.042;38.994;2023-02-04T10:43:12;9.77;;;6.25;;
50683;SDS011;36654;45.042;38.994;2023-02-04T10:45:45;10.73;;;6.63;;
50683;SDS011;36654;45.042;38.994;2023-02-04T10:48:18;12.02;;;6.03;;
50683;SDS011;36654;45.042;38.994;2023-02-04T10:50:45;10.57;;;6.13;;
50683;SDS011;36654;45.042;38.994;2023-02-04T10:53:14;11.82;;;6.75;;
50683;SDS011;36654;45.042;38.994;2023-02-04T10:56:03;8.35;;;5.45;;
50683;SDS011;36654;45.042;38.994;2023-02-04T10:58:33;9.38;;;5.80;;
50683;SDS011;36654;45.042;38.994;2023-02-04T11:00:59;8.85;;;6.07;;
50683;SDS011;36654;45.042;38.994;2023-02-04T11:03:28;9.98;;;5.75;;
50683;SDS011;36654;45.042;38.994;2023-02-04T11:05:57;14.57;;;7.63;;
50683;SDS011;36654;45.042;38.994;2023-02-04T11:08:33;11.48;;;5.80;;
50683;SDS011;36654;45.042;38.994;2023-02-04T11:11:05;7.43;;;5.72;;
50683;SDS011;36654;45.042;38.994;2023-02-04T11:26:39;13.68;;;6.68;;
50683;SDS011;36654;45.042;38.994;2023-02-04T11:31:41;7.40;;;5.43;;
50683;SDS011;36654;45.042;38.994;2023-02-04T11:40:11;9.95;;;6.85;;
50683;SDS011;36654;45.042;38.994;2023-02-04T11:42:22;9.75;;;5.78;;
50683;SDS011;36654;45.042;38.994;2023-02-04T11:44:52;6.60;;;5.32;;
50683;SDS011;36654;45.042;38.994;2023-02-04T11:47:19;8.18;;;4.88;;
50683;SDS011;36654;45.042;38.994;2023-02-04T11:49:47;5.63;;;3.75;;
50683;SDS011;36654;45.042;38.994;2023-02-04T11:52:19;6.80;;;4.03;;
50683;SDS011;36654;45.042;38.994;2023-02-04T11:54:54;6.75;;;4.18;;
50683;SDS011;36654;45.042;38.994;2023-02-04T11:57:22;8.05;;;4.22;;
50683;SDS011;36654;45.042;38.994;2023-02-04T11:59:48;6.93;;;5.00;;
50683;SDS011;36654;45.042;38.994;2023-02-04T12:02:21;6.07;;;4.03;;
50683;SDS011;36654;45.042;38.994;2023-02-04T12:04:54;5.65;;;4.35;;
50683;SDS011;36654;45.042;38.994;2023-02-04T12:07:26;5.40;;;4.53;;
50683;SDS011;36654;45.042;38.994;2023-02-04T12:09:53;7.18;;;5.13;;
50683;SDS011;36654;45.042;38.994;2023-02-04T12:12:26;6.68;;;5.10;;
50683;SDS011;36654;45.042;38.994;2023-02-04T12:15:02;7.07;;;5.28;;
50683;SDS011;36654;45.042;38.994;2023-02-04T12:17:34;9.05;;;5.82;;
50683;SDS011;36654;45.042;38.994;2023-02-04T12:19:59;15.02;;;6.30;;
50683;SDS011;36654;45.042;38.994;2023-02-04T12:22:25;9.60;;;5.38;;
50683;SDS011;36654;45.042;38.994;2023-02-04T12:24:51;10.00;;;5.70;;
50683;SDS011;36654;45.042;38.994;2023-02-04T12:27:16;8.60;;;5.32;;
50683;SDS011;36654;45.042;38.994;2023-02-04T12:29:43;13.40;;;6.20;;
50683;SDS011;36654;45.042;38.994;2023-02-04T12:32:08;11.25;;;6.30;;
50683;SDS011;36654;45.042;38.994;2023-02-04T12:34:34;9.65;;;6.18;;
50683;SDS011;36654;45.042;38.994;2023-02-04T12:36:59;10.90;;;5.43;;
50683;SDS011;36654;45.042;38.994;2023-02-04T12:39:25;11.40;;;6.72;;
50683;SDS011;36654;45.042;38.994;2023-02-04T12:41:52;9.07;;;5.85;;
50683;SDS011;36654;45.042;38.994;2023-02-04T12:44:18;9.63;;;6.45;;
50683;SDS011;36654;45.042;38.994;2023-02-04T12:46:43;9.43;;;5.57;;
50683;SDS011;36654;45.042;38.994;2023-02-04T12:49:09;7.15;;;5.30;;
50683;SDS011;36654;45.042;38.994;2023-02-04T12:51:34;11.43;;;5.60;;
50683;SDS011;36654;45.042;38.994;2023-02-04T12:54:00;7.47;;;4.65;;
50683;SDS011;36654;45.042;38.994;2023-02-04T12:56:25;8.55;;;5.20;;
50683;SDS011;36654;45.042;38.994;2023-02-04T12:58:51;10.45;;;5.22;;
50683;SDS011;36654;45.042;38.994;2023-02-04T13:01:17;5.95;;;4.72;;
50683;SDS011;36654;45.042;38.994;2023-02-04T13:03:42;7.22;;;4.72;;
50683;SDS011;36654;45.042;38.994;2023-02-04T13:06:08;5.85;;;4.40;;
50683;SDS011;36654;45.042;38.994;2023-02-04T13:08:33;11.13;;;5.50;;
50683;SDS011;36654;45.042;38.994;2023-02-04T13:10:59;7.70;;;4.93;;
50683;SDS011;36654;45.042;38.994;2023-02-04T13:13:25;5.80;;;4.40;;
50683;SDS011;36654;45.042;38.994;2023-02-04T13:15:50;8.70;;;5.00;;
50683;SDS011;36654;45.042;38.994;2023-02-04T13:18:16;8.82;;;5.47;;
50683;SDS011;36654;45.042;38.994;2023-02-04T13:20:42;11.85;;;5.93;;
50683;SDS011;36654;45.042;38.994;2023-02-04T13:23:08;10.38;;;5.10;;
50683;SDS011;36654;45.042;38.994;2023-02-04T13:25:34;12.45;;;6.00;;
50683;SDS011;36654;45.042;38.994;2023-02-04T13:27:59;8.57;;;5.60;;
50683;SDS011;36654;45.042;38.994;2023-02-04T13:30:25;8.15;;;4.15;;
50683;SDS011;36654;45.042;38.994;2023-02-04T13:32:50;9.32;;;4.95;;
50683;SDS011;36654;45.042;38.994;2023-02-04T13:35:16;10.32;;;4.95;;
50683;SDS011;36654;45.042;38.994;2023-02-04T13:37:43;6.63;;;4.57;;
50683;SDS011;36654;45.042;38.994;2023-02-04T13:40:09;7.35;;;5.50;;
50683;SDS011;36654;45.042;38.994;2023-02-04T13:42:36;7.82;;;5.43;;
50683;SDS011;36654;45.042;38.994;2023-02-04T13:45:01;8.77;;;5.85;;
50683;SDS011;36654;45.042;38.994;2023-02-04T13:47:27;6.30;;;4.68;;
50683;SDS011;36654;45.042;38.994;2023-02-04T13:49:53;9.30;;;4.95;;
50683;SDS011;36654;45.042;38.994;2023-02-04T13:52:19;9.75;;;4.85;;
50683;SDS011;36654;45.042;38.994;2023-02-04T13:54:45;8.35;;;5.10;;
50683;SDS011;36654;45.042;38.994;2023-02-04T13:57:10;10.70;;;5.18;;
50683;SDS011;36654;45.042;38.994;2023-02-04T13:59:36;10.57;;;5.63;;
50683;SDS011;36654;45.042;38.994;2023-02-04T14:02:02;12.80;;;5.82;;
50683;SDS011;36654;45.042;38.994;2023-02-04T14:04:27;10.38;;;6.30;;
50683;SDS011;36654;45.042;38.994;2023-02-04T14:06:53;13.30;;;5.90;;
50683;SDS011;36654;45.042;38.994;2023-02-04T14:09:20;11.13;;;6.55;;
50683;SDS011;36654;45.042;38.994;2023-02-04T14:11:46;7.28;;;4.57;;
50683;SDS011;36654;45.042;38.994;2023-02-04T14:14:12;7.45;;;4.95;;
50683;SDS011;36654;45.042;38.994;2023-02-04T14:16:38;8.18;;;4.93;;
50683;SDS011;36654;45.042;38.994;2023-02-04T14:19:04;7.70;;;5.95;;
50683;SDS011;36654;45.042;38.994;2023-02-04T14:21:31;7.90;;;5.15;;
50683;SDS011;36654;45.042;38.994;2023-02-04T14:23:57;5.50;;;4.07;;
50683;SDS011;36654;45.042;38.994;2023-02-04T14:26:22;7.78;;;4.72;;
50683;SDS011;36654;45.042;38.994;2023-02-04T14:28:48;10.15;;;4.10;;
50683;SDS011;36654;45.042;38.994;2023-02-04T14:31:14;7.40;;;4.47;;
50683;SDS011;36654;45.042;38.994;2023-02-04T14:33:39;6.10;;;4.30;;
50683;SDS011;36654;45.042;38.994;2023-02-04T14:36:05;9.88;;;4.78;;
50683;SDS011;36654;45.042;38.994;2023-02-04T14:38:31;11.52;;;5.15;;
50683;SDS011;36654;45.042;38.994;2023-02-04T14:40:58;8.43;;;4.75;;
50683;SDS011;36654;45.042;38.994;2023-02-04T14:43:24;9.95;;;5.95;;
50683;SDS011;36654;45.042;38.994;2023-02-04T14:45:50;6.30;;;4.30;;